Etusivu
METAR-TAF:

METAR-TAF

Lentoasemat :

Worthington Municipal Airport

Worthington, Minnesota, Yhdysvallat

Leveyspiiri: 43-39N, Pituuspiiri: 095-35W, korkeus merenpinnasta: 480 m

Tämänhetkinen sää

Tämä raportti tehtiin 16 minuuttia sitten, kello 09.36 UTC
Tuuli 9 kn lounaasta
Lämpötila -4°C
Kosteus 100%
Ilmanpaine 1013 hPa
Näkyvyys: 2.4 km
Pilvistä 200 ft:n korkeudessa
utua

METAR: KOTG 260936Z AUTO 23009KT 1 1/2SM BR OVC002 M04/M04 A2991 RMK AO2 FZRANO

Aika: 03:52 (09:52 UTC)


TAF: puuttuu

Säähavainnot ja -ennusteet yli 4000 lentoasemalta (METAR- ja TAF-raportit).

Käytössä olevat sääasemat on merkitty karttaan keltaisilla ja punaisilla pisteillä.

Aseta hiiri pisteen päälle nähdäksesi sääaseman nimen.

Klikkaa sitten nähdäksesi säähavainnot ja -ennusteet.

Kartan vaihtaminen: klikkaa mustalla rastilla varustettuja vihreitä pisteitä, niin voit zoomata sisään; viivalla varustettua vihreää pistettä, niin voit zoomata ulos tai vihreitä nuolia, niin pääset viereisille kartoille.


METAR-TAF: